sensor_id;sensor_type;location;lat;lon;timestamp;pressure;altitude;pressure_sealevel;temperature;humidity
15678;BME280;7939;50.814;6.368;2023-05-20T00:01:50;100512.91;;;17.57;47.96
15678;BME280;7939;50.814;6.368;2023-05-20T00:04:17;100513.78;;;17.56;47.86
15678;BME280;7939;50.814;6.368;2023-05-20T00:06:44;100510.34;;;17.53;47.42
15678;BME280;7939;50.814;6.368;2023-05-20T00:09:10;100518.13;;;17.52;48.02
15678;BME280;7939;50.814;6.368;2023-05-20T00:11:37;100513.81;;;17.52;47.82
15678;BME280;7939;50.814;6.368;2023-05-20T00:14:04;100510.41;;;17.50;48.18
15678;BME280;7939;50.814;6.368;2023-05-20T00:16:30;100507.03;;;17.48;48.24
15678;BME280;7939;50.814;6.368;2023-05-20T00:18:58;100507.91;;;17.47;47.83
15678;BME280;7939;50.814;6.368;2023-05-20T00:21:25;100508.75;;;17.46;48.25
15678;BME280;7939;50.814;6.368;2023-05-20T00:23:51;100504.50;;;17.44;47.95
15678;BME280;7939;50.814;6.368;2023-05-20T00:26:18;100511.44;;;17.42;48.07
15678;BME280;7939;50.814;6.368;2023-05-20T00:28:45;100514.88;;;17.41;48.10
15678;BME280;7939;50.814;6.368;2023-05-20T00:31:12;100519.22;;;17.39;48.24
15678;BME280;7939;50.814;6.368;2023-05-20T00:33:38;100513.25;;;17.37;48.61
15678;BME280;7939;50.814;6.368;2023-05-20T00:36:07;100514.13;;;17.36;48.57
15678;BME280;7939;50.814;6.368;2023-05-20T00:38:33;100508.09;;;17.34;48.65
15678;BME280;7939;50.814;6.368;2023-05-20T00:41:00;100506.41;;;17.33;48.26
15678;BME280;7939;50.814;6.368;2023-05-20T00:43:26;100510.75;;;17.31;48.19
15678;BME280;7939;50.814;6.368;2023-05-20T00:45:53;100512.47;;;17.30;48.61
15678;BME280;7939;50.814;6.368;2023-05-20T00:48:21;100513.38;;;17.29;48.34
15678;BME280;7939;50.814;6.368;2023-05-20T00:50:48;100510.78;;;17.27;48.90
15678;BME280;7939;50.814;6.368;2023-05-20T00:53:16;100513.41;;;17.26;48.43
15678;BME280;7939;50.814;6.368;2023-05-20T00:55:43;100519.47;;;17.23;49.04
15678;BME280;7939;50.814;6.368;2023-05-20T00:58:10;100502.28;;;17.22;48.51
15678;BME280;7939;50.814;6.368;2023-05-20T01:00:38;100501.44;;;17.20;48.64
15678;BME280;7939;50.814;6.368;2023-05-20T01:03:05;100493.72;;;17.19;48.89
15678;BME280;7939;50.814;6.368;2023-05-20T01:05:32;100500.59;;;17.18;48.59
15678;BME280;7939;50.814;6.368;2023-05-20T01:07:59;100496.34;;;17.14;48.65
15678;BME280;7939;50.814;6.368;2023-05-20T01:10:28;100498.09;;;17.14;48.76
15678;BME280;7939;50.814;6.368;2023-05-20T01:12:57;100502.47;;;17.10;48.80
15678;BME280;7939;50.814;6.368;2023-05-20T01:15:26;100499.03;;;17.10;49.01
15678;BME280;7939;50.814;6.368;2023-05-20T01:17:57;100498.19;;;17.08;49.04
15678;BME280;7939;50.814;6.368;2023-05-20T01:20:27;100499.06;;;17.07;48.92
15678;BME280;7939;50.814;6.368;2023-05-20T01:22:55;100493.06;;;17.05;48.91
15678;BME280;7939;50.814;6.368;2023-05-20T01:25:22;100497.38;;;17.03;49.05
15678;BME280;7939;50.814;6.368;2023-05-20T01:27:51;100495.69;;;17.02;49.29
15678;BME280;7939;50.814;6.368;2023-05-20T01:30:19;100491.41;;;17.01;49.37
15678;BME280;7939;50.814;6.368;2023-05-20T01:32:47;100494.88;;;16.99;49.04
15678;BME280;7939;50.814;6.368;2023-05-20T01:35:18;100485.44;;;16.95;49.47
15678;BME280;7939;50.814;6.368;2023-05-20T01:37:45;100484.59;;;16.95;49.38
15678;BME280;7939;50.814;6.368;2023-05-20T01:40:15;100482.91;;;16.94;49.39
15678;BME280;7939;50.814;6.368;2023-05-20T01:42:42;100485.50;;;16.92;49.60
15678;BME280;7939;50.814;6.368;2023-05-20T01:45:10;100488.97;;;16.91;49.26
15678;BME280;7939;50.814;6.368;2023-05-20T01:47:37;100485.53;;;16.89;49.56
15678;BME280;7939;50.814;6.368;2023-05-20T01:50:05;100474.38;;;16.89;49.51
15678;BME280;7939;50.814;6.368;2023-05-20T01:52:32;100480.41;;;16.88;49.43
15678;BME280;7939;50.814;6.368;2023-05-20T01:54:58;100483.03;;;16.86;49.70
15678;BME280;7939;50.814;6.368;2023-05-20T01:57:26;100475.31;;;16.85;49.55
15678;BME280;7939;50.814;6.368;2023-05-20T01:59:53;100472.72;;;16.83;49.61
15678;BME280;7939;50.814;6.368;2023-05-20T02:02:19;100467.56;;;16.83;49.60
15678;BME280;7939;50.814;6.368;2023-05-20T02:04:49;100472.78;;;16.80;49.61
15678;BME280;7939;50.814;6.368;2023-05-20T02:07:16;100473.66;;;16.79;49.50
15678;BME280;7939;50.814;6.368;2023-05-20T02:09:43;100477.97;;;16.79;49.61
15678;BME280;7939;50.814;6.368;2023-05-20T02:12:10;100471.09;;;16.76;49.53
15678;BME280;7939;50.814;6.368;2023-05-20T02:14:42;100470.25;;;16.76;49.76
15678;BME280;7939;50.814;6.368;2023-05-20T02:17:09;100472.88;;;16.74;50.02
15678;BME280;7939;50.814;6.368;2023-05-20T02:19:35;100471.16;;;16.73;49.81
15678;BME280;7939;50.814;6.368;2023-05-20T02:22:02;100475.47;;;16.71;49.96
15678;BME280;7939;50.814;6.368;2023-05-20T02:24:28;100472.03;;;16.70;50.10
15678;BME280;7939;50.814;6.368;2023-05-20T02:26:55;100475.50;;;16.68;49.32
15678;BME280;7939;50.814;6.368;2023-05-20T02:29:23;100466.91;;;16.67;49.76
15678;BME280;7939;50.814;6.368;2023-05-20T02:31:51;100474.66;;;16.64;49.87
15678;BME280;7939;50.814;6.368;2023-05-20T02:34:17;100466.97;;;16.63;49.94
15678;BME280;7939;50.814;6.368;2023-05-20T02:36:44;100465.25;;;16.62;49.91
15678;BME280;7939;50.814;6.368;2023-05-20T02:39:10;100472.16;;;16.61;50.22
15678;BME280;7939;50.814;6.368;2023-05-20T02:41:41;100467.03;;;16.60;49.98
15678;BME280;7939;50.814;6.368;2023-05-20T02:44:07;100465.28;;;16.59;49.85
15678;BME280;7939;50.814;6.368;2023-05-20T02:46:34;100468.75;;;16.58;50.27
15678;BME280;7939;50.814;6.368;2023-05-20T02:49:02;100467.91;;;16.57;50.28
15678;BME280;7939;50.814;6.368;2023-05-20T02:51:29;100463.66;;;16.55;50.07
15678;BME280;7939;50.814;6.368;2023-05-20T02:53:57;100467.09;;;16.54;50.17
15678;BME280;7939;50.814;6.368;2023-05-20T02:56:24;100468.81;;;16.52;50.14
15678;BME280;7939;50.814;6.368;2023-05-20T02:58:51;100470.56;;;16.51;50.27
15678;BME280;7939;50.814;6.368;2023-05-20T03:01:17;100459.41;;;16.49;50.14
15678;BME280;7939;50.814;6.368;2023-05-20T03:03:44;100457.72;;;16.48;50.21
15678;BME280;7939;50.814;6.368;2023-05-20T03:06:12;100454.28;;;16.48;50.30
15678;BME280;7939;50.814;6.368;2023-05-20T03:08:38;100450.00;;;16.45;50.25
15678;BME280;7939;50.814;6.368;2023-05-20T03:11:06;100447.44;;;16.43;50.29
15678;BME280;7939;50.814;6.368;2023-05-20T03:13:33;100446.63;;;16.41;50.11
15678;BME280;7939;50.814;6.368;2023-05-20T03:16:00;100450.06;;;16.40;50.63
15678;BME280;7939;50.814;6.368;2023-05-20T03:18:26;100442.34;;;16.39;50.34
15678;BME280;7939;50.814;6.368;2023-05-20T03:20:53;100445.78;;;16.38;50.30
15678;BME280;7939;50.814;6.368;2023-05-20T03:23:21;100447.56;;;16.36;50.38
15678;BME280;7939;50.814;6.368;2023-05-20T03:25:48;100450.16;;;16.34;50.42
15678;BME280;7939;50.814;6.368;2023-05-20T03:28:15;100449.31;;;16.32;50.40
15678;BME280;7939;50.814;6.368;2023-05-20T03:30:41;100446.75;;;16.31;50.32
15678;BME280;7939;50.814;6.368;2023-05-20T03:33:08;100444.16;;;16.31;50.45
15678;BME280;7939;50.814;6.368;2023-05-20T03:35:34;100442.47;;;16.30;50.57
15678;BME280;7939;50.814;6.368;2023-05-20T03:38:01;100446.78;;;16.28;50.14
15678;BME280;7939;50.814;6.368;2023-05-20T03:40:29;100439.06;;;16.26;50.34
15678;BME280;7939;50.814;6.368;2023-05-20T03:42:55;100442.53;;;16.25;50.37
15678;BME280;7939;50.814;6.368;2023-05-20T03:45:22;100437.38;;;16.24;50.56
15678;BME280;7939;50.814;6.368;2023-05-20T03:47:49;100442.56;;;16.22;50.46
15678;BME280;7939;50.814;6.368;2023-05-20T03:50:16;100443.41;;;16.21;50.62
15678;BME280;7939;50.814;6.368;2023-05-20T03:52:43;100440.03;;;16.19;50.72
15678;BME280;7939;50.814;6.368;2023-05-20T03:55:09;100440.91;;;16.18;50.49
15678;BME280;7939;50.814;6.368;2023-05-20T03:57:37;100447.78;;;16.17;50.91
15678;BME280;7939;50.814;6.368;2023-05-20T04:00:05;100445.22;;;16.16;50.63
15678;BME280;7939;50.814;6.368;2023-05-20T04:02:35;100452.13;;;16.15;50.73
15678;BME280;7939;50.814;6.368;2023-05-20T04:05:02;100442.66;;;16.13;50.54
15678;BME280;7939;50.814;6.368;2023-05-20T04:07:29;100447.81;;;16.13;50.62
15678;BME280;7939;50.814;6.368;2023-05-20T04:09:56;100443.56;;;16.10;50.67
15678;BME280;7939;50.814;6.368;2023-05-20T04:12:23;100454.75;;;16.11;50.93
15678;BME280;7939;50.814;6.368;2023-05-20T04:14:56;100455.63;;;16.10;50.97
15678;BME280;7939;50.814;6.368;2023-05-20T04:17:25;100453.88;;;16.09;50.79
15678;BME280;7939;50.814;6.368;2023-05-20T04:19:52;100446.16;;;16.09;50.98
15678;BME280;7939;50.814;6.368;2023-05-20T04:22:19;100449.59;;;16.08;50.93
15678;BME280;7939;50.814;6.368;2023-05-20T04:24:45;100451.34;;;16.06;51.00
15678;BME280;7939;50.814;6.368;2023-05-20T04:27:12;100449.66;;;16.05;50.79
15678;BME280;7939;50.814;6.368;2023-05-20T04:29:38;100458.25;;;16.04;50.77
15678;BME280;7939;50.814;6.368;2023-05-20T04:32:12;100456.53;;;16.03;50.99
15678;BME280;7939;50.814;6.368;2023-05-20T04:34:39;100453.09;;;16.02;50.99
15678;BME280;7939;50.814;6.368;2023-05-20T04:37:06;100448.81;;;16.01;50.98
15678;BME280;7939;50.814;6.368;2023-05-20T04:39:33;100449.66;;;16.02;50.98
15678;BME280;7939;50.814;6.368;2023-05-20T04:42:00;100457.41;;;16.03;50.69
15678;BME280;7939;50.814;6.368;2023-05-20T04:44:27;100452.25;;;16.03;51.06
15678;BME280;7939;50.814;6.368;2023-05-20T04:46:54;100449.69;;;16.03;50.82
15678;BME280;7939;50.814;6.368;2023-05-20T04:49:23;100453.94;;;16.03;51.25
15678;BME280;7939;50.814;6.368;2023-05-20T04:51:51;100456.53;;;16.03;51.19
15678;BME280;7939;50.814;6.368;2023-05-20T04:54:19;100464.25;;;16.03;50.96
15678;BME280;7939;50.814;6.368;2023-05-20T04:56:46;100458.25;;;16.02;50.69
15678;BME280;7939;50.814;6.368;2023-05-20T04:59:12;100456.56;;;16.01;51.06
15678;BME280;7939;50.814;6.368;2023-05-20T05:01:39;100451.38;;;16.03;51.30
15678;BME280;7939;50.814;6.368;2023-05-20T05:04:06;100446.25;;;16.01;50.81
15678;BME280;7939;50.814;6.368;2023-05-20T05:06:34;100447.97;;;16.01;51.23
15678;BME280;7939;50.814;6.368;2023-05-20T05:09:00;100437.66;;;16.01;51.32
15678;BME280;7939;50.814;6.368;2023-05-20T05:11:27;100446.25;;;16.00;51.73
15678;BME280;7939;50.814;6.368;2023-05-20T05:13:54;100440.25;;;15.99;51.44
15678;BME280;7939;50.814;6.368;2023-05-20T05:16:21;100441.09;;;16.00;51.23
15678;BME280;7939;50.814;6.368;2023-05-20T05:18:48;100440.25;;;15.99;51.40
15678;BME280;7939;50.814;6.368;2023-05-20T05:21:15;100438.53;;;16.00;51.45
15678;BME280;7939;50.814;6.368;2023-05-20T05:23:43;100437.69;;;15.99;51.44
15678;BME280;7939;50.814;6.368;2023-05-20T05:26:10;100441.09;;;16.00;51.47
15678;BME280;7939;50.814;6.368;2023-05-20T05:28:36;100439.38;;;16.00;51.38
15678;BME280;7939;50.814;6.368;2023-05-20T05:31:03;100429.94;;;15.99;51.65
15678;BME280;7939;50.814;6.368;2023-05-20T05:33:31;100429.94;;;15.99;51.42
15678;BME280;7939;50.814;6.368;2023-05-20T05:35:58;100420.50;;;16.00;51.44
15678;BME280;7939;50.814;6.368;2023-05-20T05:38:26;100419.63;;;15.99;51.48
15678;BME280;7939;50.814;6.368;2023-05-20T05:40:54;100421.38;;;15.99;51.34
15678;BME280;7939;50.814;6.368;2023-05-20T05:43:21;100419.63;;;15.99;51.64
15678;BME280;7939;50.814;6.368;2023-05-20T05:45:47;100411.06;;;15.99;51.64
15678;BME280;7939;50.814;6.368;2023-05-20T05:48:14;100417.88;;;16.01;51.68
15678;BME280;7939;50.814;6.368;2023-05-20T05:50:43;100416.16;;;16.02;51.56
15678;BME280;7939;50.814;6.368;2023-05-20T05:53:09;100419.59;;;16.02;51.79
15678;BME280;7939;50.814;6.368;2023-05-20T05:55:36;100416.16;;;16.02;51.51
15678;BME280;7939;50.814;6.368;2023-05-20T05:58:04;100422.16;;;16.04;51.64
15678;BME280;7939;50.814;6.368;2023-05-20T06:00:30;100424.75;;;16.04;51.68
15678;BME280;7939;50.814;6.368;2023-05-20T06:02:57;100415.28;;;16.03;51.81
15678;BME280;7939;50.814;6.368;2023-05-20T06:05:24;100413.59;;;16.03;51.49
15678;BME280;7939;50.814;6.368;2023-05-20T06:07:50;100412.69;;;16.03;52.25
15678;BME280;7939;50.814;6.368;2023-05-20T06:10:17;100421.38;;;15.99;52.38
15678;BME280;7939;50.814;6.368;2023-05-20T06:12:44;100419.59;;;16.02;51.92
15678;BME280;7939;50.814;6.368;2023-05-20T06:15:12;100417.84;;;16.03;51.99
15678;BME280;7939;50.814;6.368;2023-05-20T06:17:38;100423.03;;;16.04;52.22
15678;BME280;7939;50.814;6.368;2023-05-20T06:20:06;100418.69;;;16.06;52.06
15678;BME280;7939;50.814;6.368;2023-05-20T06:22:33;100414.38;;;16.07;52.20
15678;BME280;7939;50.814;6.368;2023-05-20T06:24:59;100414.38;;;16.07;52.28
15678;BME280;7939;50.814;6.368;2023-05-20T06:27:27;100413.56;;;16.05;52.64
15678;BME280;7939;50.814;6.368;2023-05-20T06:29:53;100419.53;;;16.07;52.38
15678;BME280;7939;50.814;6.368;2023-05-20T06:32:21;100416.09;;;16.08;52.51
15678;BME280;7939;50.814;6.368;2023-05-20T06:34:48;100410.94;;;16.09;52.56
15678;BME280;7939;50.814;6.368;2023-05-20T06:37:15;100416.09;;;16.08;52.60
15678;BME280;7939;50.814;6.368;2023-05-20T06:39:41;100416.13;;;16.05;53.26
15678;BME280;7939;50.814;6.368;2023-05-20T06:42:08;100413.50;;;16.09;52.95
15678;BME280;7939;50.814;6.368;2023-05-20T06:44:34;100413.47;;;16.11;52.66
15678;BME280;7939;50.814;6.368;2023-05-20T06:47:01;100405.69;;;16.14;52.54
15678;BME280;7939;50.814;6.368;2023-05-20T06:49:29;100403.13;;;16.15;52.63
15678;BME280;7939;50.814;6.368;2023-05-20T06:51:56;100413.44;;;16.12;52.93
15678;BME280;7939;50.814;6.368;2023-05-20T06:54:22;100408.22;;;16.18;52.75
15678;BME280;7939;50.814;6.368;2023-05-20T06:56:49;100393.59;;;16.19;52.64
15678;BME280;7939;50.814;6.368;2023-05-20T06:59:15;100394.44;;;16.19;52.66
15678;BME280;7939;50.814;6.368;2023-05-20T07:01:42;100391.00;;;16.21;52.93
15678;BME280;7939;50.814;6.368;2023-05-20T07:04:09;100388.38;;;16.25;52.58
15678;BME280;7939;50.814;6.368;2023-05-20T07:06:37;100398.66;;;16.27;52.55
15678;BME280;7939;50.814;6.368;2023-05-20T07:09:04;100394.34;;;16.29;52.31
15678;BME280;7939;50.814;6.368;2023-05-20T07:11:30;100396.03;;;16.30;52.72
15678;BME280;7939;50.814;6.368;2023-05-20T07:13:57;100383.97;;;16.32;52.55
15678;BME280;7939;50.814;6.368;2023-05-20T07:16:26;100383.94;;;16.33;52.49
15678;BME280;7939;50.814;6.368;2023-05-20T07:18:53;100386.50;;;16.36;52.36
15678;BME280;7939;50.814;6.368;2023-05-20T07:21:20;100378.72;;;16.38;52.34
15678;BME280;7939;50.814;6.368;2023-05-20T07:23:48;100379.53;;;16.40;52.39
15678;BME280;7939;50.814;6.368;2023-05-20T07:26:15;100380.41;;;16.42;52.49
15678;BME280;7939;50.814;6.368;2023-05-20T07:28:41;100378.63;;;16.44;52.54
15678;BME280;7939;50.814;6.368;2023-05-20T07:31:08;100383.81;;;16.44;52.37
15678;BME280;7939;50.814;6.368;2023-05-20T07:33:34;100382.03;;;16.48;52.20
15678;BME280;7939;50.814;6.368;2023-05-20T07:36:01;100370.78;;;16.52;52.49
15678;BME280;7939;50.814;6.368;2023-05-20T07:38:28;100369.91;;;16.53;52.21
15678;BME280;7939;50.814;6.368;2023-05-20T07:40:56;100358.66;;;16.57;52.31
15678;BME280;7939;50.814;6.368;2023-05-20T07:43:23;100362.91;;;16.61;52.67
15678;BME280;7939;50.814;6.368;2023-05-20T07:45:50;100365.44;;;16.64;52.88
15678;BME280;7939;50.814;6.368;2023-05-20T07:48:16;100355.97;;;16.64;53.06
15678;BME280;7939;50.814;6.368;2023-05-20T07:50:43;100358.47;;;16.69;52.83
15678;BME280;7939;50.814;6.368;2023-05-20T07:53:09;100349.78;;;16.76;52.71
15678;BME280;7939;50.814;6.368;2023-05-20T07:55:36;100354.06;;;16.77;52.62
15678;BME280;7939;50.814;6.368;2023-05-20T07:58:04;100350.59;;;16.78;52.89
15678;BME280;7939;50.814;6.368;2023-05-20T08:00:31;100345.34;;;16.84;52.69
15678;BME280;7939;50.814;6.368;2023-05-20T08:02:58;100346.13;;;16.89;52.38
15678;BME280;7939;50.814;6.368;2023-05-20T08:05:24;100344.31;;;16.94;52.48
15678;BME280;7939;50.814;6.368;2023-05-20T08:07:51;100345.97;;;17.00;52.40
15678;BME280;7939;50.814;6.368;2023-05-20T08:10:18;100354.53;;;17.04;52.47
15678;BME280;7939;50.814;6.368;2023-05-20T08:12:45;100352.75;;;17.06;52.62
15678;BME280;7939;50.814;6.368;2023-05-20T08:15:13;100344.00;;;17.13;52.07
15678;BME280;7939;50.814;6.368;2023-05-20T08:17:40;100338.78;;;17.17;52.15
15678;BME280;7939;50.814;6.368;2023-05-20T08:20:08;100347.31;;;17.21;51.99
15678;BME280;7939;50.814;6.368;2023-05-20T08:22:35;100341.25;;;17.23;51.88
15678;BME280;7939;50.814;6.368;2023-05-20T08:25:02;100339.44;;;17.27;52.38
15678;BME280;7939;50.814;6.368;2023-05-20T08:27:29;100337.56;;;17.37;51.77
15678;BME280;7939;50.814;6.368;2023-05-20T08:29:56;100334.00;;;17.41;52.24
15678;BME280;7939;50.814;6.368;2023-05-20T08:32:24;100334.00;;;17.41;52.08
15678;BME280;7939;50.814;6.368;2023-05-20T08:34:51;100337.31;;;17.49;51.57
15678;BME280;7939;50.814;6.368;2023-05-20T08:37:18;100332.03;;;17.53;51.87
15678;BME280;7939;50.814;6.368;2023-05-20T08:39:45;100335.47;;;17.56;51.49
15678;BME280;7939;50.814;6.368;2023-05-20T08:42:13;100328.47;;;17.61;52.06
15678;BME280;7939;50.814;6.368;2023-05-20T08:44:41;100334.38;;;17.67;51.62
15678;BME280;7939;50.814;6.368;2023-05-20T08:47:09;100326.50;;;17.75;51.76
15678;BME280;7939;50.814;6.368;2023-05-20T08:49:37;100323.81;;;17.78;51.08
15678;BME280;7939;50.814;6.368;2023-05-20T08:52:05;100326.28;;;17.84;51.74
15678;BME280;7939;50.814;6.368;2023-05-20T08:54:42;100320.09;;;17.91;51.34
15678;BME280;7939;50.814;6.368;2023-05-20T08:57:10;100323.47;;;17.95;51.86
15678;BME280;7939;50.814;6.368;2023-05-20T08:59:43;100317.38;;;17.99;51.31
15678;BME280;7939;50.814;6.368;2023-05-20T09:02:11;100315.50;;;18.05;51.30
15678;BME280;7939;50.814;6.368;2023-05-20T09:04:39;100325.84;;;18.05;51.48
15678;BME280;7939;50.814;6.368;2023-05-20T09:07:06;100319.59;;;18.14;51.34
15678;BME280;7939;50.814;6.368;2023-05-20T09:09:33;100316.03;;;18.20;50.77
15678;BME280;7939;50.814;6.368;2023-05-20T09:12:01;100317.66;;;18.24;50.58
15678;BME280;7939;50.814;6.368;2023-05-20T09:14:28;100321.09;;;18.24;50.83
15678;BME280;7939;50.814;6.368;2023-05-20T09:16:55;100311.50;;;18.29;51.12
15678;BME280;7939;50.814;6.368;2023-05-20T09:19:22;100313.06;;;18.37;50.54
15678;BME280;7939;50.814;6.368;2023-05-20T09:21:51;100312.97;;;18.40;50.93
15678;BME280;7939;50.814;6.368;2023-05-20T09:24:22;100310.28;;;18.44;51.31
15678;BME280;7939;50.814;6.368;2023-05-20T09:26:49;100307.66;;;18.46;50.85
15678;BME280;7939;50.814;6.368;2023-05-20T09:29:16;100313.63;;;18.49;50.66
15678;BME280;7939;50.814;6.368;2023-05-20T09:31:44;100308.41;;;18.51;50.86
15678;BME280;7939;50.814;6.368;2023-05-20T09:34:10;100301.50;;;18.51;51.10
15678;BME280;7939;50.814;6.368;2023-05-20T09:36:38;100304.88;;;18.55;50.45
15678;BME280;7939;50.814;6.368;2023-05-20T09:39:09;100302.84;;;18.66;50.53
15678;BME280;7939;50.814;6.368;2023-05-20T09:41:48;100300.88;;;18.77;50.64
15678;BME280;7939;50.814;6.368;2023-05-20T09:44:20;100314.41;;;18.89;51.35
15678;BME280;7939;50.814;6.368;2023-05-20T09:46:47;100302.94;;;18.99;50.91
15678;BME280;7939;50.814;6.368;2023-05-20T09:49:18;100302.78;;;19.03;51.04
15678;BME280;7939;50.814;6.368;2023-05-20T09:51:46;100296.66;;;19.07;50.91
15678;BME280;7939;50.814;6.368;2023-05-20T09:54:17;100299.03;;;19.15;49.84
15678;BME280;7939;50.814;6.368;2023-05-20T09:56:45;100297.25;;;19.17;49.81
15678;BME280;7939;50.814;6.368;2023-05-20T09:59:14;100299.69;;;19.22;50.51
15678;BME280;7939;50.814;6.368;2023-05-20T10:01:41;100297.69;;;19.33;50.06
15678;BME280;7939;50.814;6.368;2023-05-20T10:04:09;100303.53;;;19.39;49.92
15678;BME280;7939;50.814;6.368;2023-05-20T10:06:55;100299.94;;;19.45;49.88
15678;BME280;7939;50.814;6.368;2023-05-20T10:09:42;100296.38;;;19.49;50.03
15678;BME280;7939;50.814;6.368;2023-05-20T10:12:24;100290.97;;;19.57;50.27
15678;BME280;7939;50.814;6.368;2023-05-20T10:14:59;100292.34;;;19.70;50.13
15678;BME280;7939;50.814;6.368;2023-05-20T10:17:38;100292.22;;;19.73;49.70
15678;BME280;7939;50.814;6.368;2023-05-20T10:20:06;100291.19;;;19.80;50.19
15678;BME280;7939;50.814;6.368;2023-05-20T10:22:33;100286.69;;;19.85;49.54
15678;BME280;7939;50.814;6.368;2023-05-20T10:25:04;100292.53;;;19.92;49.60
15678;BME280;7939;50.814;6.368;2023-05-20T10:27:41;100287.34;;;19.92;49.42
15678;BME280;7939;50.814;6.368;2023-05-20T10:30:14;100291.59;;;19.94;49.51
15678;BME280;7939;50.814;6.368;2023-05-20T10:32:48;100291.56;;;19.96;49.38
15678;BME280;7939;50.814;6.368;2023-05-20T10:35:20;100293.97;;;20.02;49.58
15678;BME280;7939;50.814;6.368;2023-05-20T10:37:47;100287.22;;;19.97;49.65
15678;BME280;7939;50.814;6.368;2023-05-20T10:40:17;100289.63;;;20.03;49.54
15678;BME280;7939;50.814;6.368;2023-05-20T10:42:44;100295.00;;;19.97;49.27
15678;BME280;7939;50.814;6.368;2023-05-20T10:45:23;100289.72;;;20.00;49.46
15678;BME280;7939;50.814;6.368;2023-05-20T10:47:53;100280.22;;;19.99;49.42
15678;BME280;7939;50.814;6.368;2023-05-20T10:50:28;100280.22;;;19.99;49.70
15678;BME280;7939;50.814;6.368;2023-05-20T10:53:03;100274.16;;;20.00;49.87
15678;BME280;7939;50.814;6.368;2023-05-20T10:55:36;100269.00;;;19.98;49.22
15678;BME280;7939;50.814;6.368;2023-05-20T10:58:03;100275.03;;;19.99;49.31
15678;BME280;7939;50.814;6.368;2023-05-20T11:00:30;100268.00;;;20.02;49.51
15678;BME280;7939;50.814;6.368;2023-05-20T11:02:57;100266.19;;;20.06;49.42
15678;BME280;7939;50.814;6.368;2023-05-20T11:05:25;100265.28;;;20.07;49.72
15678;BME280;7939;50.814;6.368;2023-05-20T11:07:59;100272.16;;;20.08;49.41
15678;BME280;7939;50.814;6.368;2023-05-20T11:10:26;100266.97;;;20.08;49.34
15678;BME280;7939;50.814;6.368;2023-05-20T11:12:55;100258.22;;;20.10;49.25
15678;BME280;7939;50.814;6.368;2023-05-20T11:15:21;100267.69;;;20.13;49.27
15678;BME280;7939;50.814;6.368;2023-05-20T11:17:53;100246.88;;;20.14;49.40
15678;BME280;7939;50.814;6.368;2023-05-20T11:20:20;100250.91;;;20.23;49.71
15678;BME280;7939;50.814;6.368;2023-05-20T11:22:48;100252.50;;;20.27;49.62
15678;BME280;7939;50.814;6.368;2023-05-20T11:25:16;100244.72;;;20.27;49.13
15678;BME280;7939;50.814;6.368;2023-05-20T11:27:43;100241.81;;;20.36;49.24
15678;BME280;7939;50.814;6.368;2023-05-20T11:30:15;100231.56;;;20.33;49.01
15678;BME280;7939;50.814;6.368;2023-05-20T11:32:43;100232.41;;;20.34;49.49
15678;BME280;7939;50.814;6.368;2023-05-20T11:35:20;100230.50;;;20.39;49.44
15678;BME280;7939;50.814;6.368;2023-05-20T11:37:53;100238.97;;;20.45;49.25
15678;BME280;7939;50.814;6.368;2023-05-20T11:40:23;100234.47;;;20.51;49.04
15678;BME280;7939;50.814;6.368;2023-05-20T11:42:52;100231.88;;;20.51;49.01
15678;BME280;7939;50.814;6.368;2023-05-20T11:45:20;100230.78;;;20.58;49.04
15678;BME280;7939;50.814;6.368;2023-05-20T11:47:57;100232.72;;;20.51;49.23
15678;BME280;7939;50.814;6.368;2023-05-20T11:50:24;100233.66;;;20.48;48.70
15678;BME280;7939;50.814;6.368;2023-05-20T11:52:55;100231.13;;;20.47;48.95
15678;BME280;7939;50.814;6.368;2023-05-20T11:55:22;100232.78;;;20.50;49.15
15678;BME280;7939;50.814;6.368;2023-05-20T11:57:49;100227.53;;;20.51;49.16
15678;BME280;7939;50.814;6.368;2023-05-20T12:00:16;100220.78;;;20.45;49.09
15678;BME280;7939;50.814;6.368;2023-05-20T12:02:44;100225.88;;;20.48;49.06
15678;BME280;7939;50.814;6.368;2023-05-20T12:05:10;100218.09;;;20.48;49.28
15678;BME280;7939;50.814;6.368;2023-05-20T12:07:38;100205.06;;;20.50;48.94
15678;BME280;7939;50.814;6.368;2023-05-20T12:10:06;100205.91;;;20.51;49.26
15678;BME280;7939;50.814;6.368;2023-05-20T12:12:33;100215.28;;;20.55;49.43
15678;BME280;7939;50.814;6.368;2023-05-20T12:15:01;100220.31;;;20.59;49.39
15678;BME280;7939;50.814;6.368;2023-05-20T12:17:27;100212.44;;;20.62;49.52
15678;BME280;7939;50.814;6.368;2023-05-20T12:19:55;100208.88;;;20.65;49.41
15678;BME280;7939;50.814;6.368;2023-05-20T12:22:22;100206.22;;;20.66;49.58
15678;BME280;7939;50.814;6.368;2023-05-20T12:24:49;100206.41;;;20.62;48.75
15678;BME280;7939;50.814;6.368;2023-05-20T12:27:15;100209.56;;;20.70;49.50
15678;BME280;7939;50.814;6.368;2023-05-20T12:29:42;100220.69;;;20.73;49.51
15678;BME280;7939;50.814;6.368;2023-05-20T12:32:09;100210.47;;;20.69;49.21
15678;BME280;7939;50.814;6.368;2023-05-20T12:34:38;100206.91;;;20.71;49.21
15678;BME280;7939;50.814;6.368;2023-05-20T12:37:06;100207.69;;;20.73;49.21
15678;BME280;7939;50.814;6.368;2023-05-20T12:39:33;100207.03;;;20.68;49.33
15678;BME280;7939;50.814;6.368;2023-05-20T12:41:59;100211.38;;;20.68;49.43
15678;BME280;7939;50.814;6.368;2023-05-20T12:44:26;100210.56;;;20.66;48.96
15678;BME280;7939;50.814;6.368;2023-05-20T12:46:53;100203.63;;;20.66;49.16
15678;BME280;7939;50.814;6.368;2023-05-20T12:49:20;100200.25;;;20.64;49.36
15678;BME280;7939;50.814;6.368;2023-05-20T12:51:47;100195.06;;;20.64;49.57
15678;BME280;7939;50.814;6.368;2023-05-20T12:54:16;100206.06;;;20.71;49.58
15678;BME280;7939;50.814;6.368;2023-05-20T12:56:44;100199.13;;;20.71;49.39
15678;BME280;7939;50.814;6.368;2023-05-20T12:59:11;100200.66;;;20.77;49.39
15678;BME280;7939;50.814;6.368;2023-05-20T13:01:38;100205.09;;;20.73;49.20
15678;BME280;7939;50.814;6.368;2023-05-20T13:04:05;100194.69;;;20.75;49.63